sensor_id;sensor_type;location;lat;lon;timestamp;P1;P2;P0
78512;PMS5003;67809;55.034;73.462;2023-05-07T00:00:04;39.00;31.00;20.00
78512;PMS5003;67809;55.034;73.462;2023-05-07T00:02:34;50.25;41.50;28.75
78512;PMS5003;67809;55.034;73.462;2023-05-07T00:05:01;39.00;32.00;22.00
78512;PMS5003;67809;55.034;73.462;2023-05-07T00:07:28;46.00;37.00;24.00
78512;PMS5003;67809;55.034;73.462;2023-05-07T00:09:54;36.00;30.00;20.00
78512;PMS5003;67809;55.034;73.462;2023-05-07T00:12:20;29.00;25.00;17.00
78512;PMS5003;67809;55.034;73.462;2023-05-07T00:14:46;33.00;27.00;19.00
78512;PMS5003;67809;55.034;73.462;2023-05-07T00:17:12;33.50;27.50;18.00
78512;PMS5003;67809;55.034;73.462;2023-05-07T00:19:38;35.00;28.00;19.00
78512;PMS5003;67809;55.034;73.462;2023-05-07T00:22:04;34.00;27.00;18.00
78512;PMS5003;67809;55.034;73.462;2023-05-07T00:24:30;49.00;40.00;26.00
78512;PMS5003;67809;55.034;73.462;2023-05-07T00:26:56;32.50;27.00;18.00
78512;PMS5003;67809;55.034;73.462;2023-05-07T00:29:23;28.67;24.00;16.00
78512;PMS5003;67809;55.034;73.462;2023-05-07T00:31:49;29.00;24.00;16.00
78512;PMS5003;67809;55.034;73.462;2023-05-07T00:34:16;27.75;24.00;16.00
78512;PMS5003;67809;55.034;73.462;2023-05-07T00:36:42;28.50;24.00;16.00
78512;PMS5003;67809;55.034;73.462;2023-05-07T00:39:09;34.00;27.00;17.00
78512;PMS5003;67809;55.034;73.462;2023-05-07T00:41:35;37.00;28.50;20.00
78512;PMS5003;67809;55.034;73.462;2023-05-07T00:44:01;41.50;33.50;22.00
78512;PMS5003;67809;55.034;73.462;2023-05-07T00:46:28;40.00;32.00;21.00
78512;PMS5003;67809;55.034;73.462;2023-05-07T00:48:55;40.00;31.75;21.00
78512;PMS5003;67809;55.034;73.462;2023-05-07T00:51:22;37.00;31.00;21.00
78512;PMS5003;67809;55.034;73.462;2023-05-07T00:53:48;42.75;34.00;22.00
78512;PMS5003;67809;55.034;73.462;2023-05-07T00:56:15;45.00;36.00;24.00
78512;PMS5003;67809;55.034;73.462;2023-05-07T00:58:41;42.00;32.00;21.00
78512;PMS5003;67809;55.034;73.462;2023-05-07T01:01:07;35.00;28.00;19.50
78512;PMS5003;67809;55.034;73.462;2023-05-07T01:03:34;43.00;33.00;22.00
78512;PMS5003;67809;55.034;73.462;2023-05-07T01:06:00;37.75;31.00;21.00
78512;PMS5003;67809;55.034;73.462;2023-05-07T01:08:27;32.00;26.25;18.00
78512;PMS5003;67809;55.034;73.462;2023-05-07T01:10:55;37.00;30.00;21.00
78512;PMS5003;67809;55.034;73.462;2023-05-07T01:13:22;42.50;34.00;22.50
78512;PMS5003;67809;55.034;73.462;2023-05-07T01:15:49;41.00;33.25;22.00
78512;PMS5003;67809;55.034;73.462;2023-05-07T01:18:16;40.00;32.00;20.00
78512;PMS5003;67809;55.034;73.462;2023-05-07T01:20:42;34.50;28.50;19.25
78512;PMS5003;67809;55.034;73.462;2023-05-07T01:23:10;22.00;19.00;13.50
78512;PMS5003;67809;55.034;73.462;2023-05-07T01:25:36;22.00;18.00;13.00
78512;PMS5003;67809;55.034;73.462;2023-05-07T01:28:03;24.00;19.50;13.50
78512;PMS5003;67809;55.034;73.462;2023-05-07T01:30:34;24.50;22.00;15.75
78512;PMS5003;67809;55.034;73.462;2023-05-07T01:33:04;24.50;21.75;14.75
78512;PMS5003;67809;55.034;73.462;2023-05-07T01:35:34;31.00;26.00;17.00
78512;PMS5003;67809;55.034;73.462;2023-05-07T01:38:01;31.75;25.75;17.00
78512;PMS5003;67809;55.034;73.462;2023-05-07T01:40:30;31.00;26.00;17.00
78512;PMS5003;67809;55.034;73.462;2023-05-07T01:42:56;32.50;27.00;18.00
78512;PMS5003;67809;55.034;73.462;2023-05-07T01:45:22;31.00;25.00;15.75
78512;PMS5003;67809;55.034;73.462;2023-05-07T01:47:49;30.00;24.00;16.00
78512;PMS5003;67809;55.034;73.462;2023-05-07T01:50:15;29.00;25.00;16.00
78512;PMS5003;67809;55.034;73.462;2023-05-07T01:52:42;30.50;25.00;17.00
78512;PMS5003;67809;55.034;73.462;2023-05-07T01:55:10;29.00;24.00;16.00
78512;PMS5003;67809;55.034;73.462;2023-05-07T01:57:36;31.00;26.00;18.00
78512;PMS5003;67809;55.034;73.462;2023-05-07T02:00:02;29.33;24.33;17.00
78512;PMS5003;67809;55.034;73.462;2023-05-07T02:02:41;31.00;26.00;17.00
78512;PMS5003;67809;55.034;73.462;2023-05-07T02:05:14;26.00;21.75;15.00
78512;PMS5003;67809;55.034;73.462;2023-05-07T02:07:41;31.00;25.00;16.00
78512;PMS5003;67809;55.034;73.462;2023-05-07T02:10:08;28.00;22.00;15.00
78512;PMS5003;67809;55.034;73.462;2023-05-07T02:12:34;23.00;20.00;13.25
78512;PMS5003;67809;55.034;73.462;2023-05-07T02:15:01;24.50;21.00;15.00
78512;PMS5003;67809;55.034;73.462;2023-05-07T02:17:27;29.00;23.00;16.00
78512;PMS5003;67809;55.034;73.462;2023-05-07T02:19:53;23.00;20.00;13.00
78512;PMS5003;67809;55.034;73.462;2023-05-07T02:22:19;23.75;21.00;14.00
78512;PMS5003;67809;55.034;73.462;2023-05-07T02:24:45;30.25;25.50;17.00
78512;PMS5003;67809;55.034;73.462;2023-05-07T02:27:11;86.50;67.00;39.00
78512;PMS5003;67809;55.034;73.462;2023-05-07T02:29:38;36.00;29.00;19.00
78512;PMS5003;67809;55.034;73.462;2023-05-07T02:32:04;29.00;23.00;16.00
78512;PMS5003;67809;55.034;73.462;2023-05-07T02:34:30;26.00;22.00;14.75
78512;PMS5003;67809;55.034;73.462;2023-05-07T02:36:56;21.00;18.00;12.00
78512;PMS5003;67809;55.034;73.462;2023-05-07T02:39:25;34.00;27.50;18.00
78512;PMS5003;67809;55.034;73.462;2023-05-07T02:41:51;30.00;25.00;16.75
78512;PMS5003;67809;55.034;73.462;2023-05-07T02:44:17;42.00;34.00;23.75
78512;PMS5003;67809;55.034;73.462;2023-05-07T02:46:49;58.50;47.00;32.00
78512;PMS5003;67809;55.034;73.462;2023-05-07T02:49:15;81.67;71.67;49.33
78512;PMS5003;67809;55.034;73.462;2023-05-07T02:51:41;63.50;51.00;34.75
78512;PMS5003;67809;55.034;73.462;2023-05-07T02:54:12;82.50;73.00;51.25
78512;PMS5003;67809;55.034;73.462;2023-05-07T02:56:38;76.00;63.50;44.00
78512;PMS5003;67809;55.034;73.462;2023-05-07T02:59:04;33.00;27.00;19.00
78512;PMS5003;67809;55.034;73.462;2023-05-07T03:01:35;32.00;28.00;20.00
78512;PMS5003;67809;55.034;73.462;2023-05-07T03:04:04;106.00;93.00;66.00
78512;PMS5003;67809;55.034;73.462;2023-05-07T03:06:30;45.50;37.50;25.75
78512;PMS5003;67809;55.034;73.462;2023-05-07T03:08:58;32.00;26.50;18.00
78512;PMS5003;67809;55.034;73.462;2023-05-07T03:11:25;55.00;44.00;31.00
78512;PMS5003;67809;55.034;73.462;2023-05-07T03:13:51;33.75;29.00;20.00
78512;PMS5003;67809;55.034;73.462;2023-05-07T03:16:19;50.00;40.25;28.00
78512;PMS5003;67809;55.034;73.462;2023-05-07T03:18:45;54.00;44.00;30.00
78512;PMS5003;67809;55.034;73.462;2023-05-07T03:21:11;17.00;15.00;11.00
78512;PMS5003;67809;55.034;73.462;2023-05-07T03:23:37;16.25;14.00;9.00
78512;PMS5003;67809;55.034;73.462;2023-05-07T03:26:03;26.25;23.00;15.75
78512;PMS5003;67809;55.034;73.462;2023-05-07T03:28:29;18.00;16.50;12.25
78512;PMS5003;67809;55.034;73.462;2023-05-07T03:31:00;18.25;16.50;12.00
78512;PMS5003;67809;55.034;73.462;2023-05-07T03:33:26;16.00;14.00;10.00
78512;PMS5003;67809;55.034;73.462;2023-05-07T03:35:53;21.00;18.75;13.00
78512;PMS5003;67809;55.034;73.462;2023-05-07T03:38:23;20.00;18.00;13.00
78512;PMS5003;67809;55.034;73.462;2023-05-07T03:40:49;16.25;14.75;10.00
78512;PMS5003;67809;55.034;73.462;2023-05-07T03:43:16;17.00;15.00;10.00
78512;PMS5003;67809;55.034;73.462;2023-05-07T03:45:47;17.00;15.00;10.00
78512;PMS5003;67809;55.034;73.462;2023-05-07T03:48:21;53.75;44.00;30.75
78512;PMS5003;67809;55.034;73.462;2023-05-07T03:50:49;13.00;11.00;8.00
78512;PMS5003;67809;55.034;73.462;2023-05-07T03:53:16;20.00;17.75;13.00
78512;PMS5003;67809;55.034;73.462;2023-05-07T03:55:42;22.00;18.00;13.00
78512;PMS5003;67809;55.034;73.462;2023-05-07T03:58:09;39.75;32.50;23.50
78512;PMS5003;67809;55.034;73.462;2023-05-07T04:00:35;52.67;44.33;30.67
78512;PMS5003;67809;55.034;73.462;2023-05-07T04:03:12;29.00;24.00;17.00
78512;PMS5003;67809;55.034;73.462;2023-05-07T04:05:38;80.50;70.25;48.50
78512;PMS5003;67809;55.034;73.462;2023-05-07T04:08:04;21.00;18.00;13.00
78512;PMS5003;67809;55.034;73.462;2023-05-07T04:10:55;11.00;10.00;7.00
78512;PMS5003;67809;55.034;73.462;2023-05-07T04:13:23;23.00;20.75;15.00
78512;PMS5003;67809;55.034;73.462;2023-05-07T04:15:50;19.00;16.00;11.00
78512;PMS5003;67809;55.034;73.462;2023-05-07T04:18:18;11.75;10.50;8.00
78512;PMS5003;67809;55.034;73.462;2023-05-07T04:20:47;41.67;34.33;23.67
78512;PMS5003;67809;55.034;73.462;2023-05-07T04:23:14;11.00;9.50;7.00
78512;PMS5003;67809;55.034;73.462;2023-05-07T04:25:41;18.00;15.50;10.50
78512;PMS5003;67809;55.034;73.462;2023-05-07T04:28:15;29.75;26.00;18.25
78512;PMS5003;67809;55.034;73.462;2023-05-07T04:30:42;21.33;18.67;13.33
78512;PMS5003;67809;55.034;73.462;2023-05-07T04:33:09;47.00;39.00;27.00
78512;PMS5003;67809;55.034;73.462;2023-05-07T04:35:37;18.00;16.00;11.00
78512;PMS5003;67809;55.034;73.462;2023-05-07T04:38:05;12.00;11.00;8.00
78512;PMS5003;67809;55.034;73.462;2023-05-07T04:40:31;16.00;14.00;10.00
78512;PMS5003;67809;55.034;73.462;2023-05-07T04:42:59;27.50;23.50;16.75
78512;PMS5003;67809;55.034;73.462;2023-05-07T04:45:28;20.50;18.75;12.75
78512;PMS5003;67809;55.034;73.462;2023-05-07T04:47:54;30.00;25.50;18.00
78512;PMS5003;67809;55.034;73.462;2023-05-07T04:50:21;57.50;47.00;31.75
78512;PMS5003;67809;55.034;73.462;2023-05-07T04:52:51;15.25;14.00;9.25
78512;PMS5003;67809;55.034;73.462;2023-05-07T04:55:18;11.75;11.00;8.00
78512;PMS5003;67809;55.034;73.462;2023-05-07T04:57:44;11.00;9.00;6.00
78512;PMS5003;67809;55.034;73.462;2023-05-07T05:00:13;11.00;10.25;8.00
78512;PMS5003;67809;55.034;73.462;2023-05-07T05:02:47;12.00;11.00;8.50
78512;PMS5003;67809;55.034;73.462;2023-05-07T05:05:17;16.00;14.00;9.00
78512;PMS5003;67809;55.034;73.462;2023-05-07T05:07:44;29.75;25.75;17.75
78512;PMS5003;67809;55.034;73.462;2023-05-07T05:10:11;22.50;19.75;13.50
78512;PMS5003;67809;55.034;73.462;2023-05-07T05:12:39;20.75;19.00;14.00
78512;PMS5003;67809;55.034;73.462;2023-05-07T05:15:06;22.00;19.00;12.00
78512;PMS5003;67809;55.034;73.462;2023-05-07T05:17:33;14.00;12.00;9.00
78512;PMS5003;67809;55.034;73.462;2023-05-07T05:20:02;14.50;12.25;9.00
78512;PMS5003;67809;55.034;73.462;2023-05-07T05:22:29;19.00;17.00;12.00
78512;PMS5003;67809;55.034;73.462;2023-05-07T05:24:58;24.00;21.00;15.00
78512;PMS5003;67809;55.034;73.462;2023-05-07T05:27:24;18.50;16.50;12.25
78512;PMS5003;67809;55.034;73.462;2023-05-07T05:29:50;13.00;11.75;8.00
78512;PMS5003;67809;55.034;73.462;2023-05-07T05:32:17;14.33;12.67;9.00
78512;PMS5003;67809;55.034;73.462;2023-05-07T05:34:43;10.25;9.00;7.00
78512;PMS5003;67809;55.034;73.462;2023-05-07T05:37:10;13.00;11.25;8.25
78512;PMS5003;67809;55.034;73.462;2023-05-07T05:39:36;21.00;18.50;12.50
78512;PMS5003;67809;55.034;73.462;2023-05-07T05:42:03;15.00;13.00;9.00
78512;PMS5003;67809;55.034;73.462;2023-05-07T05:44:30;11.75;10.00;7.00
78512;PMS5003;67809;55.034;73.462;2023-05-07T05:46:56;12.00;11.00;7.25
78512;PMS5003;67809;55.034;73.462;2023-05-07T05:49:25;12.00;11.00;8.00
78512;PMS5003;67809;55.034;73.462;2023-05-07T05:51:51;14.00;12.33;9.00
78512;PMS5003;67809;55.034;73.462;2023-05-07T05:54:18;23.50;20.75;14.50
78512;PMS5003;67809;55.034;73.462;2023-05-07T05:56:47;13.00;11.00;8.00
78512;PMS5003;67809;55.034;73.462;2023-05-07T05:59:14;9.00;8.00;6.00
78512;PMS5003;67809;55.034;73.462;2023-05-07T06:01:41;15.33;13.67;9.00
78512;PMS5003;67809;55.034;73.462;2023-05-07T06:04:07;9.00;8.25;6.00
78512;PMS5003;67809;55.034;73.462;2023-05-07T06:06:34;8.00;7.00;4.25
78512;PMS5003;67809;55.034;73.462;2023-05-07T06:09:01;12.00;11.00;8.00
78512;PMS5003;67809;55.034;73.462;2023-05-07T06:11:35;12.00;11.00;8.00
78512;PMS5003;67809;55.034;73.462;2023-05-07T06:14:01;12.25;11.00;8.00
78512;PMS5003;67809;55.034;73.462;2023-05-07T06:16:28;9.25;8.00;6.00
78512;PMS5003;67809;55.034;73.462;2023-05-07T06:18:55;9.00;8.00;6.25
78512;PMS5003;67809;55.034;73.462;2023-05-07T06:21:21;8.00;7.25;6.00
78512;PMS5003;67809;55.034;73.462;2023-05-07T06:23:47;18.00;16.00;10.25
78512;PMS5003;67809;55.034;73.462;2023-05-07T06:26:13;13.00;11.75;8.00
78512;PMS5003;67809;55.034;73.462;2023-05-07T06:28:42;9.00;8.50;6.00
78512;PMS5003;67809;55.034;73.462;2023-05-07T06:31:11;8.00;8.00;6.00
78512;PMS5003;67809;55.034;73.462;2023-05-07T06:33:39;10.00;9.00;7.00
78512;PMS5003;67809;55.034;73.462;2023-05-07T06:36:06;8.00;7.00;5.00
78512;PMS5003;67809;55.034;73.462;2023-05-07T06:38:32;8.00;7.00;5.00
78512;PMS5003;67809;55.034;73.462;2023-05-07T06:40:58;8.00;7.00;4.75
78512;PMS5003;67809;55.034;73.462;2023-05-07T06:43:24;8.50;7.50;6.00
78512;PMS5003;67809;55.034;73.462;2023-05-07T06:45:56;12.75;11.00;8.00
78512;PMS5003;67809;55.034;73.462;2023-05-07T06:48:22;8.00;7.00;5.00
78512;PMS5003;67809;55.034;73.462;2023-05-07T06:50:58;11.00;9.00;6.00
78512;PMS5003;67809;55.034;73.462;2023-05-07T06:53:25;7.00;7.00;5.00
78512;PMS5003;67809;55.034;73.462;2023-05-07T06:55:53;7.50;6.50;5.00
78512;PMS5003;67809;55.034;73.462;2023-05-07T06:58:19;8.00;7.00;5.00
78512;PMS5003;67809;55.034;73.462;2023-05-07T07:00:47;10.00;9.00;6.00
78512;PMS5003;67809;55.034;73.462;2023-05-07T07:03:13;7.00;6.00;5.00
78512;PMS5003;67809;55.034;73.462;2023-05-07T07:05:40;7.00;6.00;5.00
78512;PMS5003;67809;55.034;73.462;2023-05-07T07:08:06;13.50;12.25;8.00
78512;PMS5003;67809;55.034;73.462;2023-05-07T07:10:33;9.00;8.00;5.50
78512;PMS5003;67809;55.034;73.462;2023-05-07T07:13:00;8.00;7.00;5.00
78512;PMS5003;67809;55.034;73.462;2023-05-07T07:15:26;10.00;9.00;6.00
78512;PMS5003;67809;55.034;73.462;2023-05-07T07:17:54;7.50;7.00;5.00
78512;PMS5003;67809;55.034;73.462;2023-05-07T07:20:23;7.00;7.00;5.00
78512;PMS5003;67809;55.034;73.462;2023-05-07T07:22:49;7.00;6.00;5.00
78512;PMS5003;67809;55.034;73.462;2023-05-07T07:25:16;7.00;6.00;4.25
78512;PMS5003;67809;55.034;73.462;2023-05-07T07:27:42;7.00;6.00;5.00
78512;PMS5003;67809;55.034;73.462;2023-05-07T07:30:09;8.00;7.00;6.00
78512;PMS5003;67809;55.034;73.462;2023-05-07T07:32:37;7.00;6.00;5.00
78512;PMS5003;67809;55.034;73.462;2023-05-07T07:35:04;6.00;5.75;4.00
78512;PMS5003;67809;55.034;73.462;2023-05-07T07:37:31;9.75;8.75;6.00
78512;PMS5003;67809;55.034;73.462;2023-05-07T07:39:59;8.00;7.00;5.00
78512;PMS5003;67809;55.034;73.462;2023-05-07T07:42:25;7.00;6.00;4.00
78512;PMS5003;67809;55.034;73.462;2023-05-07T07:44:52;11.00;10.00;7.00
78512;PMS5003;67809;55.034;73.462;2023-05-07T07:47:21;7.75;7.00;5.00
78512;PMS5003;67809;55.034;73.462;2023-05-07T07:49:49;7.00;7.00;5.00
78512;PMS5003;67809;55.034;73.462;2023-05-07T07:52:15;9.00;8.00;6.00
78512;PMS5003;67809;55.034;73.462;2023-05-07T07:54:44;9.00;9.00;6.00
78512;PMS5003;67809;55.034;73.462;2023-05-07T07:57:10;7.00;6.50;5.00
78512;PMS5003;67809;55.034;73.462;2023-05-07T07:59:36;7.00;6.00;5.00
78512;PMS5003;67809;55.034;73.462;2023-05-07T08:02:03;7.25;7.00;5.00
78512;PMS5003;67809;55.034;73.462;2023-05-07T08:04:30;7.75;7.00;5.50
78512;PMS5003;67809;55.034;73.462;2023-05-07T08:07:02;7.50;7.00;5.00
78512;PMS5003;67809;55.034;73.462;2023-05-07T08:09:30;8.00;7.00;6.00
78512;PMS5003;67809;55.034;73.462;2023-05-07T08:11:58;6.00;5.67;4.00
78512;PMS5003;67809;55.034;73.462;2023-05-07T08:14:24;6.00;6.00;4.00
78512;PMS5003;67809;55.034;73.462;2023-05-07T08:16:50;11.25;10.25;8.00
78512;PMS5003;67809;55.034;73.462;2023-05-07T08:19:17;7.00;6.00;4.00
78512;PMS5003;67809;55.034;73.462;2023-05-07T08:21:45;6.00;6.00;5.00
78512;PMS5003;67809;55.034;73.462;2023-05-07T08:24:14;7.00;7.00;4.75
78512;PMS5003;67809;55.034;73.462;2023-05-07T08:26:41;6.00;6.00;4.00
78512;PMS5003;67809;55.034;73.462;2023-05-07T08:29:08;6.50;6.00;4.00
78512;PMS5003;67809;55.034;73.462;2023-05-07T08:31:35;10.00;9.00;7.00
78512;PMS5003;67809;55.034;73.462;2023-05-07T08:34:01;7.00;6.75;5.00
78512;PMS5003;67809;55.034;73.462;2023-05-07T08:36:27;7.00;6.00;5.00
78512;PMS5003;67809;55.034;73.462;2023-05-07T08:38:54;7.00;6.00;5.00
78512;PMS5003;67809;55.034;73.462;2023-05-07T08:41:20;7.00;6.00;4.00
78512;PMS5003;67809;55.034;73.462;2023-05-07T08:43:47;10.00;9.00;6.33
78512;PMS5003;67809;55.034;73.462;2023-05-07T08:46:15;6.00;6.00;4.00
78512;PMS5003;67809;55.034;73.462;2023-05-07T08:48:42;6.00;6.00;4.75
78512;PMS5003;67809;55.034;73.462;2023-05-07T08:51:12;5.00;5.00;4.00
78512;PMS5003;67809;55.034;73.462;2023-05-07T08:53:42;7.00;6.00;5.00
78512;PMS5003;67809;55.034;73.462;2023-05-07T08:56:16;6.00;6.00;4.00
78512;PMS5003;67809;55.034;73.462;2023-05-07T08:58:43;7.50;7.25;5.00
78512;PMS5003;67809;55.034;73.462;2023-05-07T09:01:12;9.75;9.00;7.00
78512;PMS5003;67809;55.034;73.462;2023-05-07T09:03:39;7.00;6.00;4.00
78512;PMS5003;67809;55.034;73.462;2023-05-07T09:06:07;6.00;5.00;4.00
78512;PMS5003;67809;55.034;73.462;2023-05-07T09:08:33;9.00;9.00;7.00
78512;PMS5003;67809;55.034;73.462;2023-05-07T09:11:02;7.00;6.00;4.00
78512;PMS5003;67809;55.034;73.462;2023-05-07T09:13:29;5.00;5.00;4.00
78512;PMS5003;67809;55.034;73.462;2023-05-07T09:15:56;6.00;5.00;4.00
78512;PMS5003;67809;55.034;73.462;2023-05-07T09:18:23;7.00;7.00;5.00
78512;PMS5003;67809;55.034;73.462;2023-05-07T09:20:51;6.00;5.50;4.00
78512;PMS5003;67809;55.034;73.462;2023-05-07T09:23:19;6.00;6.00;4.00
78512;PMS5003;67809;55.034;73.462;2023-05-07T09:25:47;5.00;5.00;4.00
78512;PMS5003;67809;55.034;73.462;2023-05-07T09:28:21;7.00;7.00;5.00
78512;PMS5003;67809;55.034;73.462;2023-05-07T09:30:47;8.00;7.25;5.25
78512;PMS5003;67809;55.034;73.462;2023-05-07T09:33:14;18.00;16.00;12.00
78512;PMS5003;67809;55.034;73.462;2023-05-07T09:35:45;7.00;7.00;5.00
78512;PMS5003;67809;55.034;73.462;2023-05-07T09:38:16;8.00;7.00;5.00
78512;PMS5003;67809;55.034;73.462;2023-05-07T09:40:44;7.00;6.00;5.00
78512;PMS5003;67809;55.034;73.462;2023-05-07T09:43:15;6.25;6.00;4.00
78512;PMS5003;67809;55.034;73.462;2023-05-07T09:45:47;7.00;6.00;5.00
78512;PMS5003;67809;55.034;73.462;2023-05-07T09:48:19;6.00;6.00;5.00
78512;PMS5003;67809;55.034;73.462;2023-05-07T09:50:49;6.75;6.00;5.25
78512;PMS5003;67809;55.034;73.462;2023-05-07T09:53:18;12.00;11.00;9.00
78512;PMS5003;67809;55.034;73.462;2023-05-07T09:55:44;7.00;6.00;5.00
78512;PMS5003;67809;55.034;73.462;2023-05-07T09:58:11;6.00;6.00;5.00
78512;PMS5003;67809;55.034;73.462;2023-05-07T10:00:39;48.00;41.00;30.00
78512;PMS5003;67809;55.034;73.462;2023-05-07T10:03:09;10.00;10.00;7.00
78512;PMS5003;67809;55.034;73.462;2023-05-07T10:05:48;6.25;6.00;4.50
78512;PMS5003;67809;55.034;73.462;2023-05-07T10:08:16;6.00;6.00;4.00
78512;PMS5003;67809;55.034;73.462;2023-05-07T10:10:44;6.00;5.00;4.00
78512;PMS5003;67809;55.034;73.462;2023-05-07T10:13:15;8.67;8.33;6.00
78512;PMS5003;67809;55.034;73.462;2023-05-07T10:15:46;18.75;17.25;13.00
78512;PMS5003;67809;55.034;73.462;2023-05-07T10:18:13;53.75;45.25;31.25
78512;PMS5003;67809;55.034;73.462;2023-05-07T10:20:40;12.00;10.50;7.00
78512;PMS5003;67809;55.034;73.462;2023-05-07T10:23:12;14.00;12.00;9.00
78512;PMS5003;67809;55.034;73.462;2023-05-07T10:25:42;8.00;7.00;6.00
78512;PMS5003;67809;55.034;73.462;2023-05-07T10:28:18;11.75;10.50;7.25
78512;PMS5003;67809;55.034;73.462;2023-05-07T10:33:44;6.00;5.00;4.00
78512;PMS5003;67809;55.034;73.462;2023-05-07T10:36:13;11.00;10.00;7.75
78512;PMS5003;67809;55.034;73.462;2023-05-07T10:38:40;11.50;10.00;7.00
78512;PMS5003;67809;55.034;73.462;2023-05-07T10:41:07;10.00;9.00;6.00
78512;PMS5003;67809;55.034;73.462;2023-05-07T10:43:44;17.00;15.75;11.00
78512;PMS5003;67809;55.034;73.462;2023-05-07T10:46:17;16.50;14.25;10.25
78512;PMS5003;67809;55.034;73.462;2023-05-07T10:51:28;5.00;4.75;3.75
78512;PMS5003;67809;55.034;73.462;2023-05-07T10:56:43;23.00;21.75;16.00
78512;PMS5003;67809;55.034;73.462;2023-05-07T11:01:56;5.75;5.00;4.00
78512;PMS5003;67809;55.034;73.462;2023-05-07T11:04:35;16.50;15.75;12.25
78512;PMS5003;67809;55.034;73.462;2023-05-07T11:07:21;9.00;8.00;6.00
78512;PMS5003;67809;55.034;73.462;2023-05-07T11:18:25;9.00;7.50;5.00
78512;PMS5003;67809;55.034;73.462;2023-05-07T11:21:11;13.00;11.75;9.00
78512;PMS5003;67809;55.034;73.462;2023-05-07T11:26:25;9.50;8.50;7.00
78512;PMS5003;67809;55.034;73.462;2023-05-07T11:28:53;14.75;13.00;10.00
78512;PMS5003;67809;55.034;73.462;2023-05-07T11:31:28;13.00;12.75;9.25
78512;PMS5003;67809;55.034;73.462;2023-05-07T11:33:58;10.00;9.50;7.00
78512;PMS5003;67809;55.034;73.462;2023-05-07T11:36:24;6.00;6.00;5.00
78512;PMS5003;67809;55.034;73.462;2023-05-07T11:38:53;10.00;8.75;7.00
78512;PMS5003;67809;55.034;73.462;2023-05-07T11:41:19;10.00;9.00;6.00
78512;PMS5003;67809;55.034;73.462;2023-05-07T11:43:56;11.00;10.00;6.50
78512;PMS5003;67809;55.034;73.462;2023-05-07T11:46:22;10.00;9.00;7.00
78512;PMS5003;67809;55.034;73.462;2023-05-07T11:48:48;32.00;28.00;20.00
78512;PMS5003;67809;55.034;73.462;2023-05-07T11:51:18;21.50;19.25;14.00
78512;PMS5003;67809;55.034;73.462;2023-05-07T11:53:44;25.25;23.00;17.00
78512;PMS5003;67809;55.034;73.462;2023-05-07T11:56:14;11.00;10.33;8.00
78512;PMS5003;67809;55.034;73.462;2023-05-07T11:58:42;15.50;14.50;10.25
78512;PMS5003;67809;55.034;73.462;2023-05-07T12:01:08;12.00;11.00;8.00
78512;PMS5003;67809;55.034;73.462;2023-05-07T12:03:35;12.00;11.00;7.00
78512;PMS5003;67809;55.034;73.462;2023-05-07T12:06:05;12.00;11.00;8.00
78512;PMS5003;67809;55.034;73.462;2023-05-07T12:08:31;13.00;12.00;8.00
78512;PMS5003;67809;55.034;73.462;2023-05-07T12:10:58;13.00;12.00;8.50
78512;PMS5003;67809;55.034;73.462;2023-05-07T12:13:25;13.50;13.00;9.00
78512;PMS5003;67809;55.034;73.462;2023-05-07T12:15:57;16.00;15.00;11.00
78512;PMS5003;67809;55.034;73.462;2023-05-07T12:18:23;17.75;15.75;11.00
78512;PMS5003;67809;55.034;73.462;2023-05-07T12:20:49;28.00;24.75;17.75
78512;PMS5003;67809;55.034;73.462;2023-05-07T12:23:16;16.75;15.25;11.00
78512;PMS5003;67809;55.034;73.462;2023-05-07T12:25:44;16.50;14.75;11.00
78512;PMS5003;67809;55.034;73.462;2023-05-07T12:28:14;16.00;14.00;10.00
78512;PMS5003;67809;55.034;73.462;2023-05-07T12:30:42;11.00;9.00;7.00
78512;PMS5003;67809;55.034;73.462;2023-05-07T12:33:08;17.00;15.00;11.00
78512;PMS5003;67809;55.034;73.462;2023-05-07T12:35:41;11.00;10.00;7.33
78512;PMS5003;67809;55.034;73.462;2023-05-07T12:38:17;14.00;12.00;8.00
78512;PMS5003;67809;55.034;73.462;2023-05-07T12:40:47;13.00;11.00;8.00
78512;PMS5003;67809;55.034;73.462;2023-05-07T12:43:26;11.25;10.00;8.00
78512;PMS5003;67809;55.034;73.462;2023-05-07T12:45:54;11.00;10.00;8.00
78512;PMS5003;67809;55.034;73.462;2023-05-07T12:48:20;15.00;14.00;10.00
78512;PMS5003;67809;55.034;73.462;2023-05-07T12:50:50;12.75;12.00;9.00
78512;PMS5003;67809;55.034;73.462;2023-05-07T12:53:16;12.50;11.75;8.25
78512;PMS5003;67809;55.034;73.462;2023-05-07T12:55:44;14.25;13.50;10.00
78512;PMS5003;67809;55.034;73.462;2023-05-07T12:58:20;14.00;13.00;9.00
78512;PMS5003;67809;55.034;73.462;2023-05-07T13:00:47;12.25;11.50;8.50
78512;PMS5003;67809;55.034;73.462;2023-05-07T13:03:20;13.00;11.00;9.00
78512;PMS5003;67809;55.034;73.462;2023-05-07T13:05:47;15.00;14.00;9.33
78512;PMS5003;67809;55.034;73.462;2023-05-07T13:08:13;13.00;12.00;8.00
78512;PMS5003;67809;55.034;73.462;2023-05-07T13:10:49;18.00;15.50;10.25
78512;PMS5003;67809;55.034;73.462;2023-05-07T13:13:15;12.00;11.00;8.00
78512;PMS5003;67809;55.034;73.462;2023-05-07T13:15:41;12.00;10.00;8.00
78512;PMS5003;67809;55.034;73.462;2023-05-07T13:18:07;13.75;12.75;9.00
78512;PMS5003;67809;55.034;73.462;2023-05-07T13:20:33;13.00;12.00;9.00
78512;PMS5003;67809;55.034;73.462;2023-05-07T13:22:59;12.75;12.00;9.00
78512;PMS5003;67809;55.034;73.462;2023-05-07T13:25:27;15.67;13.00;9.00
78512;PMS5003;67809;55.034;73.462;2023-05-07T13:27:56;12.50;11.00;7.50
78512;PMS5003;67809;55.034;73.462;2023-05-07T13:30:22;14.75;13.25;9.75
78512;PMS5003;67809;55.034;73.462;2023-05-07T13:32:48;13.00;12.00;9.00
78512;PMS5003;67809;55.034;73.462;2023-05-07T13:35:15;12.00;11.00;8.00
78512;PMS5003;67809;55.034;73.462;2023-05-07T13:37:42;12.00;12.00;9.00
78512;PMS5003;67809;55.034;73.462;2023-05-07T13:40:08;15.50;13.50;9.00
78512;PMS5003;67809;55.034;73.462;2023-05-07T13:42:34;13.00;12.00;9.00
78512;PMS5003;67809;55.034;73.462;2023-05-07T13:45:00;12.50;11.00;9.00
78512;PMS5003;67809;55.034;73.462;2023-05-07T13:47:29;15.00;13.00;10.00
78512;PMS5003;67809;55.034;73.462;2023-05-07T13:49:55;16.00;14.00;9.00
78512;PMS5003;67809;55.034;73.462;2023-05-07T13:52:21;15.00;13.25;10.00
78512;PMS5003;67809;55.034;73.462;2023-05-07T13:54:47;13.75;12.00;9.00
78512;PMS5003;67809;55.034;73.462;2023-05-07T13:57:13;16.75;14.00;10.00
78512;PMS5003;67809;55.034;73.462;2023-05-07T13:59:40;16.50;14.50;11.00
78512;PMS5003;67809;55.034;73.462;2023-05-07T14:02:06;17.00;15.25;11.00
78512;PMS5003;67809;55.034;73.462;2023-05-07T14:04:33;17.00;15.00;10.25
78512;PMS5003;67809;55.034;73.462;2023-05-07T14:06:59;16.33;14.00;10.00
78512;PMS5003;67809;55.034;73.462;2023-05-07T14:09:25;17.00;16.00;11.00
78512;PMS5003;67809;55.034;73.462;2023-05-07T14:11:51;18.50;16.25;12.00